Urb Castillos del Mar, Puerto Rico
Current Conditions -  °F | °C
As of 10:53 PM on Friday 24 Oct 2014 (Local Time) from TJNR Reporting Station
Few Clouds Few Clouds  
Wind Chill: 81°   Ceiling: Unl
Heat Index: 87°   Visibility: 10mi
Dew Point: 75°   Wind: 6mph
Humidity: 82%   Direction: 140°SE
Pressure: 29.95"   Gusts: NA
Location:  18.2667°N, 65.6476°W
Report Text: TJNR 250253Z AUTO 14005KT 10SM FEW022 27/24 A2995 RMK AO2 SLP142 T02720239 51011 $
Loading
Personal Weather Stations






























Interactive Weather Map
Tropical Storm Tracking
New forecast layout! Learn more

10-Day Weather Forecast

Advertisements
Track Severe Weather on mobile